createdAt,value
2019-01-03T00:02:58.433Z,-2.75
2019-01-03T00:05:57.108Z,-2.77
2019-01-03T00:08:52.882Z,-2.83
2019-01-03T00:11:37.247Z,-2.82
2019-01-03T00:14:26.019Z,-2.83
2019-01-03T00:17:19.305Z,-2.73
2019-01-03T00:20:19.034Z,-2.88
2019-01-03T00:23:07.725Z,-2.89
2019-01-03T00:25:56.203Z,-3.09
2019-01-03T00:28:44.454Z,-3.03
2019-01-03T00:31:34.536Z,-3.03
2019-01-03T00:34:23.108Z,-3.06
2019-01-03T00:37:24.645Z,-3.02
2019-01-03T00:40:17.543Z,-3.04
2019-01-03T00:43:05.900Z,-2.97
2019-01-03T00:45:55.922Z,-3.06
2019-01-03T00:48:44.317Z,-3.11
2019-01-03T00:51:36.950Z,-3.13
2019-01-03T00:54:36.014Z,-2.99
2019-01-03T00:57:29.945Z,-2.95
2019-01-03T01:00:25.788Z,-2.97
2019-01-03T01:03:14.453Z,-3.04
2019-01-03T01:06:03.271Z,-3.06
2019-01-03T01:08:51.796Z,-3.12
2019-01-03T01:11:56.793Z,-3.07
2019-01-03T01:14:46.882Z,-3.13
2019-01-03T01:17:36.892Z,-3.17
2019-01-03T01:20:25.280Z,-3.22
2019-01-03T01:23:15.141Z,-3.28
2019-01-03T01:26:05.602Z,-3.25
2019-01-03T01:28:50.934Z,-3.27
2019-01-03T01:31:39.389Z,-3.19
2019-01-03T01:34:35.444Z,-3.13
2019-01-03T01:37:39.057Z,-3.22
2019-01-03T01:40:31.903Z,-3.30
2019-01-03T01:43:20.692Z,-3.35
2019-01-03T01:46:20.272Z,-3.36
2019-01-03T01:49:05.880Z,-3.36
2019-01-03T01:52:02.858Z,-3.39
2019-01-03T01:54:51.720Z,-3.36
2019-01-03T01:57:39.921Z,-3.33
2019-01-03T02:00:28.098Z,-3.30
2019-01-03T02:03:18.113Z,-3.37
2019-01-03T02:06:00.548Z,-3.38
2019-01-03T02:09:08.824Z,-3.37
2019-01-03T02:12:01.690Z,-3.46
2019-01-03T02:14:49.165Z,-3.45
2019-01-03T02:17:33.160Z,-3.33
2019-01-03T02:20:29.269Z,-3.28
2019-01-03T02:23:17.830Z,-3.10
2019-01-03T02:26:01.257Z,-3.11
2019-01-03T02:28:49.533Z,-3.00
2019-01-03T02:31:37.717Z,-2.90
2019-01-03T02:34:26.269Z,-2.84
2019-01-03T02:37:14.683Z,-2.68
2019-01-03T02:40:04.470Z,-2.51
2019-01-03T02:42:51.561Z,-2.51
2019-01-03T02:45:40.957Z,-2.46
2019-01-03T02:48:33.751Z,-2.46
2019-01-03T02:51:26.565Z,-2.42
2019-01-03T02:54:15.933Z,-2.28
2019-01-03T02:57:10.594Z,-2.39
2019-01-03T03:00:19.305Z,-2.23
2019-01-03T03:03:18.727Z,-2.17
2019-01-03T03:06:08.507Z,-2.25
2019-01-03T03:08:55.604Z,-2.21
2019-01-03T03:11:44.436Z,-2.31
2019-01-03T03:14:33.520Z,-2.44
2019-01-03T03:17:21.787Z,-2.49
2019-01-03T03:20:01.091Z,-2.53
2019-01-03T03:23:00.044Z,-2.48
2019-01-03T03:25:50.561Z,-2.44
2019-01-03T03:28:56.180Z,-2.45
2019-01-03T03:31:54.935Z,-2.53
2019-01-03T03:34:43.663Z,-2.40
2019-01-03T03:37:46.124Z,-2.41
2019-01-03T03:40:41.914Z,-2.37
2019-01-03T03:43:24.554Z,-2.33
2019-01-03T03:46:17.724Z,-2.31
2019-01-03T03:49:06.246Z,-2.12
2019-01-03T03:52:02.177Z,-2.05
2019-01-03T03:54:50.353Z,-2.11
2019-01-03T03:57:52.569Z,-2.11
2019-01-03T04:00:51.703Z,-1.98
2019-01-03T04:03:39.892Z,-1.92
2019-01-03T04:06:28.442Z,-1.94
2019-01-03T04:09:18.472Z,-1.97
2019-01-03T04:12:17.447Z,-2.01
2019-01-03T04:15:05.873Z,-2.04
2019-01-03T04:17:54.311Z,-2.16
2019-01-03T04:20:44.229Z,-2.14
2019-01-03T04:23:33.951Z,-2.18
2019-01-03T04:26:20.785Z,-2.15
2019-01-03T04:29:22.809Z,-2.11
2019-01-03T04:32:11.394Z,-2.11
2019-01-03T04:34:51.069Z,-2.00
2019-01-03T04:37:39.302Z,-1.92
2019-01-03T04:40:30.272Z,-1.74
2019-01-03T04:43:32.335Z,-1.68
2019-01-03T04:46:19.357Z,-1.79
2019-01-03T04:49:08.085Z,-1.53
2019-01-03T04:52:04.053Z,-1.49
2019-01-03T04:55:12.071Z,-1.48
2019-01-03T04:58:00.753Z,-1.43
2019-01-03T05:01:00.055Z,-1.47
2019-01-03T05:04:04.708Z,-1.42
2019-01-03T05:06:52.973Z,-1.40
2019-01-03T05:09:51.625Z,-1.28
2019-01-03T05:12:50.743Z,-1.20
2019-01-03T05:15:43.697Z,-1.20
2019-01-03T05:18:51.209Z,-1.18
2019-01-03T05:21:39.275Z,-1.16
2019-01-03T05:24:25.928Z,-1.10
2019-01-03T05:27:16.014Z,-1.09
2019-01-03T05:30:06.031Z,-1.06
2019-01-03T05:33:07.838Z,-0.91
2019-01-03T05:35:57.857Z,-0.92
2019-01-03T05:38:42.808Z,-0.78
2019-01-03T05:41:28.956Z,-0.79
2019-01-03T05:44:26.058Z,-0.81
2019-01-03T05:47:14.455Z,-0.79
2019-01-03T05:50:03.285Z,-0.67
2019-01-03T05:52:46.620Z,-0.69
2019-01-03T05:55:39.382Z,-0.68
2019-01-03T05:58:40.884Z,-0.57
2019-01-03T06:01:40.185Z,-0.59
2019-01-03T06:04:45.125Z,-0.66
2019-01-03T06:07:40.661Z,-0.70
2019-01-03T06:10:36.208Z,-0.56
2019-01-03T06:13:43.983Z,-0.53
2019-01-03T06:16:30.970Z,-0.56
2019-01-03T06:19:19.184Z,-0.54
2019-01-03T06:22:21.095Z,-0.48
2019-01-03T06:25:23.035Z,-0.55
2019-01-03T06:28:30.767Z,-0.52
2019-01-03T06:31:19.188Z,-0.48
2019-01-03T06:34:21.048Z,-0.40
2019-01-03T06:37:18.777Z,-0.39
2019-01-03T06:40:08.559Z,-0.40
2019-01-03T06:42:57.082Z,-0.36
2019-01-03T06:45:46.005Z,-0.41
2019-01-03T06:48:39.959Z,-0.42
2019-01-03T06:51:32.866Z,-0.37
2019-01-03T06:54:35.972Z,-0.37
2019-01-03T06:57:24.212Z,-0.35
2019-01-03T07:00:08.343Z,-0.38
2019-01-03T07:03:09.878Z,-0.42
2019-01-03T07:06:08.489Z,-0.43
2019-01-03T07:09:04.672Z,-0.46
2019-01-03T07:11:56.569Z,-0.48
2019-01-03T07:14:45.044Z,-0.53
2019-01-03T07:17:33.662Z,-0.54
2019-01-03T07:20:22.540Z,-0.47
2019-01-03T07:23:11.292Z,-0.44
2019-01-03T07:25:59.476Z,-0.52
2019-01-03T07:28:52.585Z,-0.53
2019-01-03T07:31:40.982Z,-0.54
2019-01-03T07:34:46.225Z,-0.61
2019-01-03T07:37:42.210Z,-0.65
2019-01-03T07:40:30.536Z,-0.66
2019-01-03T07:43:20.807Z,-0.65
2019-01-03T07:46:13.964Z,-0.63
2019-01-03T07:49:02.902Z,-0.62
2019-01-03T07:52:08.093Z,-0.56
2019-01-03T07:55:13.214Z,-0.55
2019-01-03T07:57:57.521Z,-0.54
2019-01-03T08:00:44.769Z,-0.60
2019-01-03T08:03:33.477Z,-0.46
2019-01-03T08:06:23.056Z,-0.41
2019-01-03T08:09:11.833Z,-0.38
2019-01-03T08:12:03.414Z,-0.28
2019-01-03T08:15:08.722Z,-0.19
2019-01-03T08:17:57.636Z,-0.14
2019-01-03T08:20:46.409Z,-0.11
2019-01-03T08:23:31.024Z,-0.14
2019-01-03T08:26:21.402Z,-0.03
2019-01-03T08:29:11.501Z,0.00
2019-01-03T08:32:01.761Z,0.17
2019-01-03T08:34:54.880Z,0.25
2019-01-03T08:37:44.732Z,0.23
2019-01-03T08:40:33.180Z,0.30
2019-01-03T08:43:29.434Z,0.24
2019-01-03T08:46:35.720Z,0.23
2019-01-03T08:49:34.456Z,0.46
2019-01-03T08:52:32.631Z,0.43
2019-01-03T08:55:25.815Z,0.40
2019-01-03T08:58:14.403Z,0.50
2019-01-03T09:01:12.509Z,0.48
2019-01-03T09:04:02.554Z,0.50
2019-01-03T09:06:50.989Z,0.51
2019-01-03T09:09:59.045Z,0.55
2019-01-03T09:12:47.621Z,0.56
2019-01-03T09:15:34.106Z,0.56
2019-01-03T09:18:25.737Z,0.57
2019-01-03T09:21:13.805Z,0.75
2019-01-03T09:24:05.052Z,0.71
2019-01-03T09:26:53.404Z,0.68
2019-01-03T09:29:41.694Z,0.70
2019-01-03T09:32:30.374Z,0.69
2019-01-03T09:35:32.481Z,0.78
2019-01-03T09:38:15.997Z,0.92
2019-01-03T09:41:04.529Z,0.86
2019-01-03T09:43:59.605Z,1.04
2019-01-03T09:46:30.609Z,1.03
2019-01-03T09:49:01.406Z,1.07
2019-01-03T09:51:32.491Z,1.11
2019-01-03T09:54:03.358Z,1.21
2019-01-03T09:56:34.205Z,1.20
2019-01-03T09:59:05.313Z,1.25
2019-01-03T10:01:36.221Z,1.31
2019-01-03T10:04:07.373Z,1.19
2019-01-03T10:06:38.364Z,1.13
2019-01-03T10:09:09.151Z,1.23
2019-01-03T10:11:40.212Z,1.14
2019-01-03T10:14:11.189Z,1.21
2019-01-03T10:16:42.087Z,1.26
2019-01-03T10:19:13.194Z,1.22
2019-01-03T10:21:43.973Z,1.04
2019-01-03T10:24:14.757Z,1.16
2019-01-03T10:26:45.778Z,1.07
2019-01-03T10:29:17.531Z,1.09
2019-01-03T10:31:48.369Z,0.91
2019-01-03T10:34:19.214Z,0.90
2019-01-03T10:36:50.228Z,1.01
2019-01-03T10:39:22.165Z,0.98
2019-01-03T10:41:53.902Z,1.17
2019-01-03T10:44:24.704Z,1.05
2019-01-03T10:46:55.793Z,1.03
2019-01-03T10:49:26.785Z,1.09
2019-01-03T10:51:58.032Z,1.08
2019-01-03T10:54:28.887Z,1.24
2019-01-03T10:56:59.885Z,1.19
2019-01-03T10:59:30.669Z,1.26
2019-01-03T11:02:01.433Z,1.20
2019-01-03T11:04:32.721Z,1.06
2019-01-03T11:07:03.752Z,1.12
2019-01-03T11:09:34.551Z,1.14
2019-01-03T11:12:05.489Z,1.09
2019-01-03T11:14:36.646Z,0.98
2019-01-03T11:17:07.427Z,1.13
2019-01-03T11:19:38.703Z,0.96
2019-01-03T11:22:09.782Z,0.98
2019-01-03T11:24:41.297Z,0.91
2019-01-03T11:27:12.070Z,0.85
2019-01-03T11:29:43.110Z,0.85
2019-01-03T11:32:14.363Z,0.98
2019-01-03T11:34:45.164Z,0.95
2019-01-03T11:37:16.466Z,0.98
2019-01-03T11:39:47.499Z,0.96
2019-01-03T11:42:18.598Z,0.95
2019-01-03T11:44:50.212Z,0.92
2019-01-03T11:47:21.223Z,0.90
2019-01-03T11:49:52.521Z,0.93
2019-01-03T11:52:23.395Z,0.89
2019-01-03T11:54:54.185Z,0.89
2019-01-03T11:57:25.413Z,0.86
2019-01-03T11:59:56.432Z,0.92
2019-01-03T12:02:27.283Z,0.98
2019-01-03T12:04:58.079Z,0.93
2019-01-03T12:07:41.458Z,1.05
2019-01-03T12:10:25.540Z,0.98
2019-01-03T12:12:53.580Z,0.91
2019-01-03T12:15:24.852Z,0.86
2019-01-03T12:17:55.627Z,0.90
2019-01-03T12:20:26.753Z,0.76
2019-01-03T12:22:58.009Z,0.81
2019-01-03T12:25:29.075Z,0.96
2019-01-03T12:27:59.845Z,0.87
2019-01-03T12:30:30.629Z,0.94
2019-01-03T12:33:01.408Z,0.78
2019-01-03T12:35:32.205Z,0.81
2019-01-03T12:38:03.146Z,0.93
2019-01-03T12:40:34.001Z,0.76
2019-01-03T12:43:04.924Z,0.68
2019-01-03T12:45:35.722Z,0.76
2019-01-03T12:48:06.850Z,0.69
2019-01-03T12:50:37.634Z,0.69
2019-01-03T12:53:08.640Z,0.60
2019-01-03T12:55:39.429Z,0.65
2019-01-03T12:58:10.452Z,0.71
2019-01-03T13:00:41.309Z,0.66
2019-01-03T13:03:12.401Z,0.56
2019-01-03T13:05:44.474Z,0.55
2019-01-03T13:08:15.495Z,0.59
2019-01-03T13:10:46.286Z,0.75
2019-01-03T13:13:17.085Z,0.84
2019-01-03T13:15:48.147Z,0.86
2019-01-03T13:18:18.928Z,0.82
2019-01-03T13:20:50.017Z,0.83
2019-01-03T13:23:20.801Z,0.88
2019-01-03T13:25:51.607Z,0.81
2019-01-03T13:28:22.851Z,0.94
2019-01-03T13:30:53.639Z,1.07
2019-01-03T13:33:24.838Z,1.04
2019-01-03T13:35:56.100Z,0.86
2019-01-03T13:38:27.106Z,0.91
2019-01-03T13:40:58.130Z,0.95
2019-01-03T13:43:29.142Z,0.98
2019-01-03T13:46:00.194Z,0.96
2019-01-03T13:48:31.222Z,0.87
2019-01-03T13:51:02.015Z,1.06
2019-01-03T13:53:33.276Z,1.03
2019-01-03T13:56:04.070Z,0.97
2019-01-03T13:58:35.097Z,0.89
2019-01-03T14:01:06.108Z,0.96
2019-01-03T14:03:37.746Z,1.00
2019-01-03T14:06:08.765Z,1.08
2019-01-03T14:08:40.029Z,1.03
2019-01-03T14:11:10.823Z,1.19
2019-01-03T14:13:41.825Z,1.14
2019-01-03T14:16:12.623Z,1.14
2019-01-03T14:18:43.410Z,1.15
2019-01-03T14:21:14.442Z,1.17
2019-01-03T14:23:45.715Z,1.14
2019-01-03T14:26:16.736Z,1.10
2019-01-03T14:28:47.523Z,1.21
2019-01-03T14:31:18.644Z,1.25
2019-01-03T14:33:49.646Z,1.30
2019-01-03T14:36:20.689Z,1.31
2019-01-03T14:38:51.710Z,1.35
2019-01-03T14:41:22.570Z,1.40
2019-01-03T14:43:53.599Z,1.38
2019-01-03T14:46:24.641Z,1.36
2019-01-03T14:48:55.664Z,1.33
2019-01-03T14:51:26.483Z,1.29
2019-01-03T14:53:57.267Z,1.29
2019-01-03T14:56:28.062Z,1.15
2019-01-03T14:58:59.070Z,1.26
2019-01-03T15:01:30.421Z,1.24
2019-01-03T15:04:01.741Z,1.18
2019-01-03T15:06:33.003Z,1.20
2019-01-03T15:09:05.550Z,1.16
2019-01-03T15:11:36.706Z,1.20
2019-01-03T15:14:07.483Z,1.13
2019-01-03T15:16:39.469Z,1.12
2019-01-03T15:19:10.270Z,1.10
2019-01-03T15:21:45.447Z,1.09
2019-01-03T15:24:59.802Z,1.15
2019-01-03T15:28:33.619Z,1.14
2019-01-03T15:34:25.208Z,1.11
2019-01-03T15:37:19.700Z,1.09
2019-01-03T15:40:07.641Z,1.10
2019-01-03T15:43:38.025Z,1.12
2019-01-03T15:46:27.705Z,1.12
2019-01-03T15:49:28.665Z,1.12
2019-01-03T15:52:43.399Z,1.17
2019-01-03T15:55:48.913Z,1.14
2019-01-03T15:58:33.714Z,1.09
2019-01-03T16:01:28.938Z,1.12
2019-01-03T16:04:18.726Z,1.10
2019-01-03T16:11:19.716Z,1.02
2019-01-03T16:17:56.403Z,1.01
2019-01-03T16:20:39.532Z,1.11
2019-01-03T16:23:18.346Z,1.09
2019-01-03T16:26:28.810Z,1.12
2019-01-03T16:29:13.779Z,1.21
2019-01-03T16:32:05.380Z,1.19
2019-01-03T16:34:55.245Z,1.16
2019-01-03T16:37:37.667Z,1.14
2019-01-03T16:40:37.673Z,1.17
2019-01-03T16:43:19.922Z,1.14
2019-01-03T16:46:24.449Z,1.17
2019-01-03T16:49:15.511Z,1.09
2019-01-03T16:52:09.037Z,1.17
2019-01-03T16:55:04.026Z,1.17
2019-01-03T16:57:52.822Z,1.16
2019-01-03T17:00:49.179Z,1.12
2019-01-03T17:03:50.797Z,1.12
2019-01-03T17:06:58.750Z,1.18
2019-01-03T17:10:12.753Z,1.07
2019-01-03T17:16:51.039Z,1.11
2019-01-03T17:19:41.637Z,1.11
2019-01-03T17:22:15.805Z,1.20
2019-01-03T17:24:46.809Z,1.10
2019-01-03T17:27:17.949Z,1.01
2019-01-03T17:29:48.769Z,1.09
2019-01-03T17:32:20.631Z,1.10
2019-01-03T17:34:51.639Z,1.09
2019-01-03T17:37:22.519Z,1.13
2019-01-03T17:39:53.604Z,1.19
2019-01-03T17:42:24.513Z,1.17
2019-01-03T17:44:55.346Z,1.18
2019-01-03T17:47:26.794Z,1.12
2019-01-03T17:49:57.826Z,1.17
2019-01-03T17:52:28.619Z,1.22
2019-01-03T17:54:59.959Z,1.19
2019-01-03T17:57:31.148Z,1.20
2019-01-03T18:00:02.484Z,1.21
2019-01-03T18:02:33.352Z,1.16
2019-01-03T18:05:04.204Z,1.06
2019-01-03T18:07:35.474Z,1.09
2019-01-03T18:10:08.363Z,1.02
2019-01-03T18:12:40.274Z,0.97
2019-01-03T18:15:12.186Z,1.02
2019-01-03T18:17:44.209Z,1.00
2019-01-03T18:20:16.955Z,1.00
2019-01-03T18:22:48.222Z,0.98
2019-01-03T18:25:19.319Z,0.97
2019-01-03T18:27:50.374Z,0.98
2019-01-03T18:30:21.477Z,0.98
2019-01-03T18:32:53.353Z,0.99
2019-01-03T18:35:24.350Z,1.00
2019-01-03T18:37:55.375Z,1.04
2019-01-03T18:40:26.153Z,0.95
2019-01-03T18:42:57.248Z,0.93
2019-01-03T18:45:28.048Z,0.93
2019-01-03T18:47:59.413Z,0.96
2019-01-03T18:50:30.426Z,0.96
2019-01-03T18:53:01.221Z,1.12
2019-01-03T18:55:32.301Z,1.10
2019-01-03T18:58:03.446Z,1.12
2019-01-03T19:00:34.514Z,1.09
2019-01-03T19:03:05.462Z,0.99
2019-01-03T19:05:36.276Z,1.03
2019-01-03T19:08:07.348Z,1.05
2019-01-03T19:10:38.468Z,1.02
2019-01-03T19:13:09.729Z,1.01
2019-01-03T19:15:40.756Z,1.12
2019-01-03T19:18:11.678Z,1.02
2019-01-03T19:20:42.482Z,1.01
2019-01-03T19:23:13.509Z,0.97
2019-01-03T19:25:44.420Z,0.98
2019-01-03T19:28:15.473Z,1.00
2019-01-03T19:30:46.643Z,0.94
2019-01-03T19:33:17.650Z,0.92
2019-01-03T19:35:48.655Z,0.92
2019-01-03T19:38:19.746Z,0.91
2019-01-03T19:40:50.831Z,0.92
2019-01-03T19:43:21.705Z,0.91
2019-01-03T19:45:52.482Z,0.90
2019-01-03T19:48:23.510Z,0.94
2019-01-03T19:50:54.363Z,1.09
2019-01-03T19:53:25.177Z,1.18
2019-01-03T19:55:56.210Z,1.19
2019-01-03T19:58:27.006Z,1.12
2019-01-03T20:00:58.233Z,1.16
2019-01-03T20:03:29.074Z,1.17
2019-01-03T20:06:00.086Z,1.22
2019-01-03T20:08:31.105Z,1.09
2019-01-03T20:11:02.306Z,1.10
2019-01-03T20:13:33.343Z,0.97
2019-01-03T20:16:04.174Z,0.97
2019-01-03T20:18:35.097Z,1.01
2019-01-03T20:21:06.033Z,1.01
2019-01-03T20:23:37.315Z,1.01
2019-01-03T20:26:09.288Z,0.95
2019-01-03T20:28:40.318Z,0.98
2019-01-03T20:31:11.173Z,0.93
2019-01-03T20:33:42.353Z,1.05
2019-01-03T20:36:13.138Z,1.01
2019-01-03T20:38:44.102Z,1.01
2019-01-03T20:41:14.981Z,1.03
2019-01-03T20:43:45.992Z,1.07
2019-01-03T20:46:17.083Z,1.17
2019-01-03T20:48:48.111Z,1.17
2019-01-03T20:51:18.890Z,1.13
2019-01-03T20:53:49.692Z,1.10
2019-01-03T20:56:20.549Z,1.06
2019-01-03T20:58:51.407Z,1.01
2019-01-03T21:01:22.961Z,1.01
2019-01-03T21:03:54.123Z,0.93
2019-01-03T21:06:25.197Z,0.85
2019-01-03T21:08:56.005Z,0.79
2019-01-03T21:11:26.858Z,0.71
2019-01-03T21:13:57.707Z,0.60
2019-01-03T21:16:28.573Z,0.53
2019-01-03T21:18:59.422Z,0.53
2019-01-03T21:21:30.523Z,0.54
2019-01-03T21:24:01.333Z,0.49
2019-01-03T21:26:32.424Z,0.41
2019-01-03T21:29:03.290Z,0.27
2019-01-03T21:31:34.294Z,0.19
2019-01-03T21:34:05.239Z,0.09
2019-01-03T21:36:36.099Z,0.21
2019-01-03T21:39:07.520Z,0.16
2019-01-03T21:41:39.636Z,0.20
2019-01-03T21:44:10.910Z,0.25
2019-01-03T21:46:41.919Z,0.24
2019-01-03T21:49:12.790Z,0.17
2019-01-03T21:51:44.086Z,0.09
2019-01-03T21:54:15.122Z,0.10
2019-01-03T21:56:45.897Z,0.12
2019-01-03T21:59:16.930Z,0.05
2019-01-03T22:01:48.012Z,-0.01
2019-01-03T22:04:19.039Z,-0.03
2019-01-03T22:06:50.126Z,0.06
2019-01-03T22:09:21.184Z,0.18
2019-01-03T22:11:52.275Z,0.25
2019-01-03T22:14:23.074Z,0.31
2019-01-03T22:16:53.866Z,0.29
2019-01-03T22:19:24.714Z,0.26
2019-01-03T22:21:55.525Z,0.43
2019-01-03T22:24:26.548Z,0.48
2019-01-03T22:26:57.414Z,0.50
2019-01-03T22:29:28.220Z,0.50
2019-01-03T22:31:59.013Z,0.56
2019-01-03T22:34:29.818Z,0.59
2019-01-03T22:37:00.896Z,0.55
2019-01-03T22:39:31.890Z,0.55
2019-01-03T22:42:02.903Z,0.37
2019-01-03T22:44:34.462Z,0.21
2019-01-03T22:47:05.564Z,0.22
2019-01-03T22:49:36.361Z,0.14
2019-01-03T22:52:07.998Z,0.11
2019-01-03T22:54:38.803Z,0.00
2019-01-03T22:57:09.850Z,-0.10
2019-01-03T22:59:40.889Z,-0.25
2019-01-03T23:02:12.075Z,-0.30
2019-01-03T23:04:48.921Z,-0.38
2019-01-03T23:07:16.621Z,-0.38
2019-01-03T23:09:47.450Z,-0.34
2019-01-03T23:12:18.303Z,-0.33
2019-01-03T23:14:49.634Z,-0.25
2019-01-03T23:17:20.597Z,-0.26
2019-01-03T23:19:51.398Z,-0.24
2019-01-03T23:22:22.184Z,-0.19
2019-01-03T23:24:53.028Z,-0.13
2019-01-03T23:27:24.047Z,-0.07
2019-01-03T23:29:54.932Z,-0.07
2019-01-03T23:32:26.215Z,-0.09
2019-01-03T23:34:57.017Z,-0.13
2019-01-03T23:37:28.135Z,-0.19
2019-01-03T23:39:58.955Z,-0.25
2019-01-03T23:42:29.779Z,-0.28
2019-01-03T23:45:15.837Z,-0.33
2019-01-03T23:47:47.241Z,-0.35
2019-01-03T23:50:20.689Z,-0.42
2019-01-03T23:52:51.467Z,-0.45
2019-01-03T23:55:23.152Z,-0.50
2019-01-03T23:57:53.993Z,-0.58
